Time;durP1;ratioP1;P1;durP2;ratioP2;P2;SDS_P1;SDS_P2;PMS_P1;PMS_P2;Temp;Humidity;BMP_temperature;BMP_pressure;BME280_temperature;BME280_humidity;BME280_pressure;Samples;Min_cycle;Max_cycle;Signal;HPM_P1;HPM_P2
2020/03/18 00:00:57;;;;;;;13.5;11.65;;;;;;;7.42;74.26953;96424.69;;;;
2020/03/18 00:02:31;;;;;;;13.5;11.65;;;;;;;7.42;74.26953;96424.69;;;;
2020/03/18 00:03:31;;;;;;;13.5;11.65;;;;;;;7.42;74.26953;96424.69;;;;
2020/03/18 00:04:34;;;;;;;13.5;11.65;;;;;;;7.42;74.26953;96424.69;;;;
2020/03/18 00:05:34;;;;;;;13.5;11.65;;;;;;;7.42;74.26953;96424.69;;;;
2020/03/18 00:06:37;;;;;;;13.5;11.65;;;;;;;7.42;74.26953;96424.69;;;;
2020/03/18 00:07:41;;;;;;;14.05;11.75;;;;;;;7.62;74.41113;96422.64;;;;
2020/03/18 00:08:41;;;;;;;14.05;11.75;;;;;;;7.62;74.41113;96422.64;;;;
2020/03/18 00:09:42;;;;;;;14.05;11.75;;;;;;;7.62;74.41113;96422.64;;;;
2020/03/18 00:10:51;;;;;;;14.05;11.75;;;;;;;7.62;74.41113;96422.64;;;;
2020/03/18 00:11:52;;;;;;;14.05;11.75;;;;;;;7.62;74.41113;96422.64;;;;
2020/03/18 00:12:54;;;;;;;14.05;11.75;;;;;;;7.62;74.41113;96422.64;;;;
2020/03/18 00:13:54;;;;;;;14.05;11.75;;;;;;;7.62;74.41113;96422.64;;;;
2020/03/18 00:14:57;;;;;;;14.05;11.75;;;;;;;7.62;74.41113;96422.64;;;;
2020/03/18 00:15:58;;;;;;;14.05;11.75;;;;;;;7.62;74.41113;96422.64;;;;
2020/03/18 00:16:58;;;;;;;14.05;11.75;;;;;;;7.62;74.41113;96422.64;;;;
2020/03/18 00:17:59;;;;;;;14.45;11.15;;;;;;;7.74;74.4834;96420.19;;;;
2020/03/18 00:18:59;;;;;;;14.45;11.15;;;;;;;7.74;74.4834;96420.19;;;;
2020/03/18 00:20:00;;;;;;;14.45;11.15;;;;;;;7.74;74.4834;96420.19;;;;
2020/03/18 00:21:00;;;;;;;14.45;11.15;;;;;;;7.74;74.4834;96420.19;;;;
2020/03/18 00:22:02;;;;;;;14.45;11.15;;;;;;;7.74;74.4834;96420.19;;;;
2020/03/18 00:23:06;;;;;;;14.45;11.15;;;;;;;7.74;74.4834;96420.19;;;;
2020/03/18 00:24:17;;;;;;;14.45;11.15;;;;;;;7.74;74.4834;96420.19;;;;
2020/03/18 00:25:17;;;;;;;14.45;11.15;;;;;;;7.74;74.4834;96420.19;;;;
2020/03/18 00:26:19;;;;;;;14.45;11.15;;;;;;;7.74;74.4834;96420.19;;;;
2020/03/18 00:27:20;;;;;;;14.45;11.15;;;;;;;7.74;74.4834;96420.19;;;;
2020/03/18 00:28:20;;;;;;;12.45;10.95;;;;;;;7.88;74.64746;96409.38;;;;
2020/03/18 00:29:20;;;;;;;12.45;10.95;;;;;;;7.88;74.64746;96409.38;;;;
2020/03/18 00:30:21;;;;;;;12.45;10.95;;;;;;;7.88;74.64746;96409.38;;;;
2020/03/18 00:31:25;;;;;;;12.45;10.95;;;;;;;7.88;74.64746;96409.38;;;;
2020/03/18 00:32:26;;;;;;;12.45;10.95;;;;;;;7.88;74.64746;96409.38;;;;
2020/03/18 00:33:26;;;;;;;12.45;10.95;;;;;;;7.88;74.64746;96409.38;;;;
2020/03/18 00:34:27;;;;;;;12.45;10.95;;;;;;;7.88;74.64746;96409.38;;;;
2020/03/18 00:35:27;;;;;;;12.45;10.95;;;;;;;7.88;74.64746;96409.38;;;;
2020/03/18 00:36:47;;;;;;;12.45;10.95;;;;;;;7.88;74.64746;96409.38;;;;
2020/03/18 00:43:01;;;;;;;13.55;10.8;;;;;;;7.93;74.77344;96406.52;;;;
2020/03/18 00:44:02;;;;;;;13.55;10.8;;;;;;;7.93;74.77344;96406.52;;;;
2020/03/18 00:45:03;;;;;;;13.55;10.8;;;;;;;7.93;74.77344;96406.52;;;;
2020/03/18 00:46:07;;;;;;;13.55;10.8;;;;;;;7.93;74.77344;96406.52;;;;
2020/03/18 00:47:07;;;;;;;13.55;10.8;;;;;;;7.93;74.77344;96406.52;;;;
2020/03/18 00:48:07;;;;;;;13.55;10.8;;;;;;;7.93;74.77344;96406.52;;;;
2020/03/18 00:49:08;;;;;;;13.55;10.8;;;;;;;7.93;74.77344;96406.52;;;;
2020/03/18 00:50:08;;;;;;;13.4;11.65;;;;;;;7.98;75.05762;96407.31;;;;
2020/03/18 00:51:11;;;;;;;13.4;11.65;;;;;;;7.98;75.05762;96407.31;;;;
2020/03/18 00:52:12;;;;;;;13.4;11.65;;;;;;;7.98;75.05762;96407.31;;;;
2020/03/18 00:53:12;;;;;;;13.4;11.65;;;;;;;7.98;75.05762;96407.31;;;;
2020/03/18 00:54:12;;;;;;;13.4;11.65;;;;;;;7.98;75.05762;96407.31;;;;
2020/03/18 00:55:13;;;;;;;13.4;11.65;;;;;;;7.98;75.05762;96407.31;;;;
2020/03/18 00:56:13;;;;;;;13.4;11.65;;;;;;;7.98;75.05762;96407.31;;;;
2020/03/18 00:57:14;;;;;;;13.4;11.65;;;;;;;7.98;75.05762;96407.31;;;;
2020/03/18 00:58:16;;;;;;;13.4;11.65;;;;;;;7.98;75.05762;96407.31;;;;
2020/03/18 00:59:16;;;;;;;13.4;11.65;;;;;;;7.98;75.05762;96407.31;;;;
2020/03/18 01:00:17;;;;;;;13.8;12.05;;;;;;;7.81;75.34863;96396.39;;;;
2020/03/18 01:05:29;;;;;;;13.8;12.05;;;;;;;7.81;75.34863;96396.39;;;;
2020/03/18 01:06:29;;;;;;;13.8;12.05;;;;;;;7.81;75.34863;96396.39;;;;
2020/03/18 01:07:30;;;;;;;13.8;12.05;;;;;;;7.81;75.34863;96396.39;;;;
2020/03/18 01:08:31;;;;;;;13.8;12.05;;;;;;;7.81;75.34863;96396.39;;;;
2020/03/18 01:09:31;;;;;;;13.8;12.05;;;;;;;7.81;75.34863;96396.39;;;;
2020/03/18 01:10:37;;;;;;;13.8;12.05;;;;;;;7.81;75.34863;96396.39;;;;
2020/03/18 01:11:44;;;;;;;14.85;11.7;;;;;;;7.6;76.06348;96387.48;;;;
2020/03/18 01:12:45;;;;;;;14.85;11.7;;;;;;;7.6;76.06348;96387.48;;;;
2020/03/18 01:13:45;;;;;;;14.85;11.7;;;;;;;7.6;76.06348;96387.48;;;;
2020/03/18 01:14:46;;;;;;;14.85;11.7;;;;;;;7.6;76.06348;96387.48;;;;
2020/03/18 01:15:48;;;;;;;14.85;11.7;;;;;;;7.6;76.06348;96387.48;;;;
2020/03/18 01:16:49;;;;;;;14.85;11.7;;;;;;;7.6;76.06348;96387.48;;;;
2020/03/18 01:17:52;;;;;;;14.85;11.7;;;;;;;7.6;76.06348;96387.48;;;;
2020/03/18 01:18:52;;;;;;;14.85;11.7;;;;;;;7.6;76.06348;96387.48;;;;
2020/03/18 01:19:53;;;;;;;14.85;11.7;;;;;;;7.6;76.06348;96387.48;;;;
2020/03/18 01:20:53;;;;;;;14.85;11.7;;;;;;;7.6;76.06348;96387.48;;;;
2020/03/18 01:21:54;;;;;;;13.35;11.55;;;;;;;7.22;76.45605;96380.55;;;;
2020/03/18 01:22:57;;;;;;;13.35;11.55;;;;;;;7.22;76.45605;96380.55;;;;
2020/03/18 01:23:58;;;;;;;13.35;11.55;;;;;;;7.22;76.45605;96380.55;;;;
2020/03/18 01:24:58;;;;;;;13.35;11.55;;;;;;;7.22;76.45605;96380.55;;;;
2020/03/18 01:25:59;;;;;;;13.35;11.55;;;;;;;7.22;76.45605;96380.55;;;;
2020/03/18 01:26:59;;;;;;;13.35;11.55;;;;;;;7.22;76.45605;96380.55;;;;
2020/03/18 01:28:00;;;;;;;13.35;11.55;;;;;;;7.22;76.45605;96380.55;;;;
2020/03/18 01:29:01;;;;;;;13.35;11.55;;;;;;;7.22;76.45605;96380.55;;;;
2020/03/18 01:30:01;;;;;;;13.35;11.55;;;;;;;7.22;76.45605;96380.55;;;;
2020/03/18 01:31:02;;;;;;;13.35;11.55;;;;;;;7.22;76.45605;96380.55;;;;
2020/03/18 01:32:07;;;;;;;16.05;12.55;;;;;;;6.81;76.99707;96370.5;;;;
2020/03/18 01:33:10;;;;;;;16.05;12.55;;;;;;;6.81;76.99707;96370.5;;;;
2020/03/18 01:34:11;;;;;;;16.05;12.55;;;;;;;6.81;76.99707;96370.5;;;;
2020/03/18 01:35:12;;;;;;;16.05;12.55;;;;;;;6.81;76.99707;96370.5;;;;
2020/03/18 01:36:12;;;;;;;16.05;12.55;;;;;;;6.81;76.99707;96370.5;;;;
2020/03/18 01:37:13;;;;;;;16.05;12.55;;;;;;;6.81;76.99707;96370.5;;;;
2020/03/18 01:38:15;;;;;;;16.05;12.55;;;;;;;6.81;76.99707;96370.5;;;;
2020/03/18 01:39:17;;;;;;;16.05;12.55;;;;;;;6.81;76.99707;96370.5;;;;
2020/03/18 01:40:40;;;;;;;16.05;12.55;;;;;;;6.81;76.99707;96370.5;;;;
2020/03/18 01:41:40;;;;;;;16.05;12.55;;;;;;;6.81;76.99707;96370.5;;;;
2020/03/18 01:42:41;;;;;;;15.65;12.4;;;;;;;6.35;77.55078;96378.3;;;;
2020/03/18 01:43:41;;;;;;;15.65;12.4;;;;;;;6.35;77.55078;96378.3;;;;
2020/03/18 01:44:42;;;;;;;15.65;12.4;;;;;;;6.35;77.55078;96378.3;;;;
2020/03/18 01:45:44;;;;;;;15.65;12.4;;;;;;;6.35;77.55078;96378.3;;;;
2020/03/18 01:46:45;;;;;;;15.65;12.4;;;;;;;6.35;77.55078;96378.3;;;;
2020/03/18 01:47:45;;;;;;;15.65;12.4;;;;;;;6.35;77.55078;96378.3;;;;
2020/03/18 01:48:46;;;;;;;15.65;12.4;;;;;;;6.35;77.55078;96378.3;;;;
2020/03/18 01:49:47;;;;;;;15.65;12.4;;;;;;;6.35;77.55078;96378.3;;;;
2020/03/18 01:50:48;;;;;;;15.65;12.4;;;;;;;6.35;77.55078;96378.3;;;;
2020/03/18 01:51:48;;;;;;;15.65;12.4;;;;;;;6.35;77.55078;96378.3;;;;
2020/03/18 01:52:49;;;;;;;15.65;12.4;;;;;;;6.35;77.55078;96378.3;;;;
2020/03/18 01:53:53;;;;;;;16.8;12.85;;;;;;;6.02;78.12598;96376.53;;;;
2020/03/18 01:54:54;;;;;;;16.8;12.85;;;;;;;6.02;78.12598;96376.53;;;;
2020/03/18 01:55:54;;;;;;;16.8;12.85;;;;;;;6.02;78.12598;96376.53;;;;
2020/03/18 01:56:55;;;;;;;16.8;12.85;;;;;;;6.02;78.12598;96376.53;;;;
2020/03/18 01:57:55;;;;;;;16.8;12.85;;;;;;;6.02;78.12598;96376.53;;;;
2020/03/18 01:58:56;;;;;;;16.8;12.85;;;;;;;6.02;78.12598;96376.53;;;;
2020/03/18 01:59:57;;;;;;;16.8;12.85;;;;;;;6.02;78.12598;96376.53;;;;
2020/03/18 02:00:57;;;;;;;16.8;12.85;;;;;;;6.02;78.12598;96376.53;;;;
2020/03/18 02:02:22;;;;;;;16.8;12.85;;;;;;;6.02;78.12598;96376.53;;;;
2020/03/18 02:03:22;;;;;;;16.8;12.85;;;;;;;6.02;78.12598;96376.53;;;;
2020/03/18 02:04:27;;;;;;;14.5;11.9;;;;;;;5.69;78.50977;96382.2;;;;
2020/03/18 02:05:32;;;;;;;14.5;11.9;;;;;;;5.69;78.50977;96382.2;;;;
2020/03/18 02:06:32;;;;;;;14.5;11.9;;;;;;;5.69;78.50977;96382.2;;;;
2020/03/18 02:07:33;;;;;;;14.5;11.9;;;;;;;5.69;78.50977;96382.2;;;;
2020/03/18 02:08:34;;;;;;;14.5;11.9;;;;;;;5.69;78.50977;96382.2;;;;
2020/03/18 02:09:34;;;;;;;14.5;11.9;;;;;;;5.69;78.50977;96382.2;;;;
2020/03/18 02:10:39;;;;;;;14.5;11.9;;;;;;;5.69;78.50977;96382.2;;;;
2020/03/18 02:11:49;;;;;;;14.5;11.9;;;;;;;5.69;78.50977;96382.2;;;;
2020/03/18 02:12:50;;;;;;;14.5;11.9;;;;;;;5.69;78.50977;96382.2;;;;
2020/03/18 02:13:50;;;;;;;14.5;11.9;;;;;;;5.69;78.50977;96382.2;;;;
2020/03/18 02:14:51;;;;;;;16.9;12.4;;;;;;;5.47;78.93555;96378.09;;;;
2020/03/18 02:15:52;;;;;;;16.9;12.4;;;;;;;5.47;78.93555;96378.09;;;;
2020/03/18 02:22:15;;;;;;;16.9;12.4;;;;;;;5.47;78.93555;96378.09;;;;
2020/03/18 02:23:15;;;;;;;16.9;12.4;;;;;;;5.47;78.93555;96378.09;;;;
2020/03/18 02:24:16;;;;;;;16.9;12.4;;;;;;;5.47;78.93555;96378.09;;;;
2020/03/18 02:25:17;;;;;;;16.35;13.25;;;;;;;5.21;79.17383;96378.44;;;;
2020/03/18 02:26:18;;;;;;;16.35;13.25;;;;;;;5.21;79.17383;96378.44;;;;
2020/03/18 02:27:21;;;;;;;16.35;13.25;;;;;;;5.21;79.17383;96378.44;;;;
2020/03/18 02:28:21;;;;;;;16.35;13.25;;;;;;;5.21;79.17383;96378.44;;;;
2020/03/18 02:29:22;;;;;;;16.35;13.25;;;;;;;5.21;79.17383;96378.44;;;;
2020/03/18 02:30:22;;;;;;;16.35;13.25;;;;;;;5.21;79.17383;96378.44;;;;
2020/03/18 02:31:23;;;;;;;16.35;13.25;;;;;;;5.21;79.17383;96378.44;;;;
2020/03/18 02:32:24;;;;;;;16.35;13.25;;;;;;;5.21;79.17383;96378.44;;;;
2020/03/18 02:33:25;;;;;;;16.35;13.25;;;;;;;5.21;79.17383;96378.44;;;;
2020/03/18 02:34:25;;;;;;;16.35;13.25;;;;;;;5.21;79.17383;96378.44;;;;
2020/03/18 02:35:28;;;;;;;16.35;13.25;;;;;;;5.21;79.17383;96378.44;;;;
2020/03/18 02:36:28;;;;;;;16.95;12.95;;;;;;;5.04;79.47852;96382.31;;;;
2020/03/18 02:37:29;;;;;;;16.95;12.95;;;;;;;5.04;79.47852;96382.31;;;;
2020/03/18 02:38:32;;;;;;;16.95;12.95;;;;;;;5.04;79.47852;96382.31;;;;
2020/03/18 02:39:33;;;;;;;16.95;12.95;;;;;;;5.04;79.47852;96382.31;;;;
2020/03/18 02:41:42;;;;;;;16.95;12.95;;;;;;;5.04;79.47852;96382.31;;;;
2020/03/18 02:42:45;;;;;;;16.95;12.95;;;;;;;5.04;79.47852;96382.31;;;;
2020/03/18 02:43:48;;;;;;;16.95;12.95;;;;;;;5.04;79.47852;96382.31;;;;
2020/03/18 02:44:50;;;;;;;16.95;12.95;;;;;;;5.04;79.47852;96382.31;;;;
2020/03/18 02:45:54;;;;;;;16.95;12.95;;;;;;;5.04;79.47852;96382.31;;;;
2020/03/18 02:46:57;;;;;;;14.65;12.05;;;;;;;4.8;79.73047;96373.89;;;;
2020/03/18 02:47:59;;;;;;;14.65;12.05;;;;;;;4.8;79.73047;96373.89;;;;
2020/03/18 02:49:02;;;;;;;14.65;12.05;;;;;;;4.8;79.73047;96373.89;;;;
2020/03/18 02:50:02;;;;;;;14.65;12.05;;;;;;;4.8;79.73047;96373.89;;;;
2020/03/18 02:51:09;;;;;;;14.65;12.05;;;;;;;4.8;79.73047;96373.89;;;;
2020/03/18 02:52:12;;;;;;;14.65;12.05;;;;;;;4.8;79.73047;96373.89;;;;
2020/03/18 02:53:16;;;;;;;14.65;12.05;;;;;;;4.8;79.73047;96373.89;;;;
2020/03/18 02:54:19;;;;;;;14.65;12.05;;;;;;;4.8;79.73047;96373.89;;;;
2020/03/18 02:55:21;;;;;;;14.65;12.05;;;;;;;4.8;79.73047;96373.89;;;;
2020/03/18 02:56:22;;;;;;;14.65;12.05;;;;;;;4.8;79.73047;96373.89;;;;
2020/03/18 02:57:29;;;;;;;15.15;12.15;;;;;;;4.66;80.03125;96370.08;;;;
2020/03/18 02:58:30;;;;;;;15.15;12.15;;;;;;;4.66;80.03125;96370.08;;;;
2020/03/18 02:59:34;;;;;;;15.15;12.15;;;;;;;4.66;80.03125;96370.08;;;;
2020/03/18 03:00:39;;;;;;;15.15;12.15;;;;;;;4.66;80.03125;96370.08;;;;
2020/03/18 03:01:50;;;;;;;15.15;12.15;;;;;;;4.66;80.03125;96370.08;;;;
2020/03/18 03:02:50;;;;;;;15.15;12.15;;;;;;;4.66;80.03125;96370.08;;;;
2020/03/18 03:03:57;;;;;;;15.15;12.15;;;;;;;4.66;80.03125;96370.08;;;;
2020/03/18 03:04:59;;;;;;;15.15;12.15;;;;;;;4.66;80.03125;96370.08;;;;
2020/03/18 03:06:01;;;;;;;15.15;12.15;;;;;;;4.66;80.03125;96370.08;;;;
2020/03/18 03:07:06;;;;;;;15.15;12.15;;;;;;;4.66;80.03125;96370.08;;;;
2020/03/18 03:08:09;;;;;;;18.55;14.05;;;;;;;4.52;80.28027;96371.72;;;;
2020/03/18 03:09:13;;;;;;;18.55;14.05;;;;;;;4.52;80.28027;96371.72;;;;
2020/03/18 03:10:17;;;;;;;18.55;14.05;;;;;;;4.52;80.28027;96371.72;;;;
2020/03/18 03:11:17;;;;;;;18.55;14.05;;;;;;;4.52;80.28027;96371.72;;;;
2020/03/18 03:12:22;;;;;;;18.55;14.05;;;;;;;4.52;80.28027;96371.72;;;;
2020/03/18 03:13:23;;;;;;;18.55;14.05;;;;;;;4.52;80.28027;96371.72;;;;
2020/03/18 03:14:26;;;;;;;18.55;14.05;;;;;;;4.52;80.28027;96371.72;;;;
2020/03/18 03:15:29;;;;;;;18.55;14.05;;;;;;;4.52;80.28027;96371.72;;;;
2020/03/18 03:16:32;;;;;;;18.55;14.05;;;;;;;4.52;80.28027;96371.72;;;;
2020/03/18 03:17:37;;;;;;;18.55;14.05;;;;;;;4.52;80.28027;96371.72;;;;
2020/03/18 03:18:50;;;;;;;16.3;13.75;;;;;;;4.61;80.49609;96368.92;;;;
2020/03/18 03:20:01;;;;;;;16.3;13.75;;;;;;;4.61;80.49609;96368.92;;;;
2020/03/18 03:21:08;;;;;;;16.3;13.75;;;;;;;4.61;80.49609;96368.92;;;;
2020/03/18 03:22:10;;;;;;;16.3;13.75;;;;;;;4.61;80.49609;96368.92;;;;
2020/03/18 03:23:12;;;;;;;16.3;13.75;;;;;;;4.61;80.49609;96368.92;;;;
2020/03/18 03:24:19;;;;;;;16.3;13.75;;;;;;;4.61;80.49609;96368.92;;;;
2020/03/18 03:25:26;;;;;;;16.3;13.75;;;;;;;4.61;80.49609;96368.92;;;;
2020/03/18 03:26:32;;;;;;;16.3;13.75;;;;;;;4.61;80.49609;96368.92;;;;
2020/03/18 03:27:36;;;;;;;16.3;13.75;;;;;;;4.61;80.49609;96368.92;;;;
2020/03/18 03:28:40;;;;;;;17.2;13.2;;;;;;;4.76;80.4082;96370.31;;;;
2020/03/18 03:29:43;;;;;;;17.2;13.2;;;;;;;4.76;80.4082;96370.31;;;;
2020/03/18 03:30:46;;;;;;;17.2;13.2;;;;;;;4.76;80.4082;96370.31;;;;
2020/03/18 03:31:50;;;;;;;17.2;13.2;;;;;;;4.76;80.4082;96370.31;;;;
2020/03/18 03:32:54;;;;;;;17.2;13.2;;;;;;;4.76;80.4082;96370.31;;;;
2020/03/18 03:34:04;;;;;;;17.2;13.2;;;;;;;4.76;80.4082;96370.31;;;;
2020/03/18 03:35:06;;;;;;;17.2;13.2;;;;;;;4.76;80.4082;96370.31;;;;
2020/03/18 03:36:09;;;;;;;17.2;13.2;;;;;;;4.76;80.4082;96370.31;;;;
2020/03/18 03:37:11;;;;;;;17.2;13.2;;;;;;;4.76;80.4082;96370.31;;;;
2020/03/18 03:38:13;;;;;;;17.2;13.2;;;;;;;4.76;80.4082;96370.31;;;;
2020/03/18 03:39:17;;;;;;;15.2;13.1;;;;;;;4.94;80.34668;96369.13;;;;
2020/03/18 03:40:18;;;;;;;15.2;13.1;;;;;;;4.94;80.34668;96369.13;;;;
2020/03/18 03:41:20;;;;;;;15.2;13.1;;;;;;;4.94;80.34668;96369.13;;;;
2020/03/18 03:42:23;;;;;;;15.2;13.1;;;;;;;4.94;80.34668;96369.13;;;;
2020/03/18 03:43:24;;;;;;;15.2;13.1;;;;;;;4.94;80.34668;96369.13;;;;
2020/03/18 03:44:36;;;;;;;15.2;13.1;;;;;;;4.94;80.34668;96369.13;;;;
2020/03/18 03:45:44;;;;;;;15.2;13.1;;;;;;;4.94;80.34668;96369.13;;;;
2020/03/18 03:46:48;;;;;;;15.2;13.1;;;;;;;4.94;80.34668;96369.13;;;;
2020/03/18 03:47:49;;;;;;;15.2;13.1;;;;;;;4.94;80.34668;96369.13;;;;
2020/03/18 03:49:03;;;;;;;15.2;13.1;;;;;;;4.94;80.34668;96369.13;;;;
2020/03/18 03:50:07;;;;;;;17.1;13.2;;;;;;;4.89;80.34668;96363.06;;;;
2020/03/18 03:51:08;;;;;;;17.1;13.2;;;;;;;4.89;80.34668;96363.06;;;;
2020/03/18 03:52:10;;;;;;;17.1;13.2;;;;;;;4.89;80.34668;96363.06;;;;
2020/03/18 03:53:12;;;;;;;17.1;13.2;;;;;;;4.89;80.34668;96363.06;;;;
2020/03/18 03:54:13;;;;;;;17.1;13.2;;;;;;;4.89;80.34668;96363.06;;;;
2020/03/18 03:55:35;;;;;;;17.1;13.2;;;;;;;4.89;80.34668;96363.06;;;;
2020/03/18 03:56:37;;;;;;;17.1;13.2;;;;;;;4.89;80.34668;96363.06;;;;
2020/03/18 03:57:40;;;;;;;17.1;13.2;;;;;;;4.89;80.34668;96363.06;;;;
2020/03/18 03:58:44;;;;;;;17.1;13.2;;;;;;;4.89;80.34668;96363.06;;;;
2020/03/18 03:59:47;;;;;;;17.1;13.2;;;;;;;4.89;80.34668;96363.06;;;;
2020/03/18 04:00:52;;;;;;;15.65;12.2;;;;;;;4.77;80.67383;96359.5;;;;
2020/03/18 04:01:53;;;;;;;15.65;12.2;;;;;;;4.77;80.67383;96359.5;;;;
2020/03/18 04:02:54;;;;;;;15.65;12.2;;;;;;;4.77;80.67383;96359.5;;;;
2020/03/18 04:04:03;;;;;;;15.65;12.2;;;;;;;4.77;80.67383;96359.5;;;;
2020/03/18 04:05:04;;;;;;;15.65;12.2;;;;;;;4.77;80.67383;96359.5;;;;
2020/03/18 04:06:10;;;;;;;15.65;12.2;;;;;;;4.77;80.67383;96359.5;;;;
2020/03/18 04:07:33;;;;;;;15.65;12.2;;;;;;;4.77;80.67383;96359.5;;;;
2020/03/18 04:08:42;;;;;;;15.65;12.2;;;;;;;4.77;80.67383;96359.5;;;;
2020/03/18 04:09:43;;;;;;;15.65;12.2;;;;;;;4.77;80.67383;96359.5;;;;
2020/03/18 04:10:44;;;;;;;15.65;12.2;;;;;;;4.77;80.67383;96359.5;;;;
2020/03/18 04:11:47;;;;;;;16.3;12.45;;;;;;;4.55;81.10547;96354.51;;;;
2020/03/18 04:12:49;;;;;;;16.3;12.45;;;;;;;4.55;81.10547;96354.51;;;;
2020/03/18 04:13:52;;;;;;;16.3;12.45;;;;;;;4.55;81.10547;96354.51;;;;
2020/03/18 04:14:53;;;;;;;16.3;12.45;;;;;;;4.55;81.10547;96354.51;;;;
2020/03/18 04:15:58;;;;;;;16.3;12.45;;;;;;;4.55;81.10547;96354.51;;;;
2020/03/18 04:17:03;;;;;;;16.3;12.45;;;;;;;4.55;81.10547;96354.51;;;;
2020/03/18 04:18:05;;;;;;;16.3;12.45;;;;;;;4.55;81.10547;96354.51;;;;
2020/03/18 04:19:06;;;;;;;16.3;12.45;;;;;;;4.55;81.10547;96354.51;;;;
2020/03/18 04:20:10;;;;;;;16.3;12.45;;;;;;;4.55;81.10547;96354.51;;;;
2020/03/18 04:21:11;;;;;;;16.3;12.45;;;;;;;4.55;81.10547;96354.51;;;;
2020/03/18 04:22:13;;;;;;;19;13.25;;;;;;;4.39;81.39063;96359.38;;;;
2020/03/18 04:23:16;;;;;;;19;13.25;;;;;;;4.39;81.39063;96359.38;;;;
2020/03/18 04:24:19;;;;;;;19;13.25;;;;;;;4.39;81.39063;96359.38;;;;
2020/03/18 04:25:28;;;;;;;19;13.25;;;;;;;4.39;81.39063;96359.38;;;;
2020/03/18 04:26:31;;;;;;;19;13.25;;;;;;;4.39;81.39063;96359.38;;;;
2020/03/18 04:27:34;;;;;;;19;13.25;;;;;;;4.39;81.39063;96359.38;;;;
2020/03/18 04:28:36;;;;;;;19;13.25;;;;;;;4.39;81.39063;96359.38;;;;
2020/03/18 04:29:39;;;;;;;19;13.25;;;;;;;4.39;81.39063;96359.38;;;;
2020/03/18 04:30:39;;;;;;;19;13.25;;;;;;;4.39;81.39063;96359.38;;;;
2020/03/18 04:31:40;;;;;;;19;13.25;;;;;;;4.39;81.39063;96359.38;;;;
2020/03/18 04:32:43;;;;;;;15.85;13.2;;;;;;;4.13;81.64746;96354.78;;;;
2020/03/18 04:33:45;;;;;;;15.85;13.2;;;;;;;4.13;81.64746;96354.78;;;;
2020/03/18 04:34:47;;;;;;;15.85;13.2;;;;;;;4.13;81.64746;96354.78;;;;
2020/03/18 04:35:48;;;;;;;15.85;13.2;;;;;;;4.13;81.64746;96354.78;;;;
2020/03/18 04:36:49;;;;;;;15.85;13.2;;;;;;;4.13;81.64746;96354.78;;;;
2020/03/18 04:37:49;;;;;;;15.85;13.2;;;;;;;4.13;81.64746;96354.78;;;;
2020/03/18 04:38:52;;;;;;;15.85;13.2;;;;;;;4.13;81.64746;96354.78;;;;
2020/03/18 04:39:57;;;;;;;15.85;13.2;;;;;;;4.13;81.64746;96354.78;;;;
2020/03/18 04:40:59;;;;;;;15.85;13.2;;;;;;;4.13;81.64746;96354.78;;;;
2020/03/18 04:42:07;;;;;;;15.85;13.2;;;;;;;4.13;81.64746;96354.78;;;;
2020/03/18 04:43:23;;;;;;;18.4;12.8;;;;;;;3.96;81.93066;96356.64;;;;
2020/03/18 04:45:02;;;;;;;18.4;12.8;;;;;;;3.96;81.93066;96356.64;;;;
2020/03/18 04:46:10;;;;;;;18.4;12.8;;;;;;;3.96;81.93066;96356.64;;;;
2020/03/18 04:47:36;;;;;;;18.4;12.8;;;;;;;3.96;81.93066;96356.64;;;;
2020/03/18 04:52:47;;;;;;;18.4;12.8;;;;;;;3.96;81.93066;96356.64;;;;
2020/03/18 04:53:48;;;;;;;17.2;13.7;;;;;;;3.76;82.14355;96358.91;;;;
2020/03/18 04:54:54;;;;;;;17.2;13.7;;;;;;;3.76;82.14355;96358.91;;;;
2020/03/18 04:55:57;;;;;;;17.2;13.7;;;;;;;3.76;82.14355;96358.91;;;;
2020/03/18 04:56:58;;;;;;;17.2;13.7;;;;;;;3.76;82.14355;96358.91;;;;
2020/03/18 04:57:58;;;;;;;17.2;13.7;;;;;;;3.76;82.14355;96358.91;;;;
2020/03/18 04:58:59;;;;;;;17.2;13.7;;;;;;;3.76;82.14355;96358.91;;;;
2020/03/18 05:00:00;;;;;;;17.2;13.7;;;;;;;3.76;82.14355;96358.91;;;;
2020/03/18 05:01:00;;;;;;;17.2;13.7;;;;;;;3.76;82.14355;96358.91;;;;
2020/03/18 05:02:00;;;;;;;17.2;13.7;;;;;;;3.76;82.14355;96358.91;;;;
2020/03/18 05:03:04;;;;;;;17.2;13.7;;;;;;;3.76;82.14355;96358.91;;;;
2020/03/18 05:04:05;;;;;;;16.65;13.75;;;;;;;3.65;82.38672;96358.85;;;;
2020/03/18 05:05:06;;;;;;;16.65;13.75;;;;;;;3.65;82.38672;96358.85;;;;
2020/03/18 05:06:06;;;;;;;16.65;13.75;;;;;;;3.65;82.38672;96358.85;;;;
2020/03/18 05:07:08;;;;;;;16.65;13.75;;;;;;;3.65;82.38672;96358.85;;;;
2020/03/18 05:08:08;;;;;;;16.65;13.75;;;;;;;3.65;82.38672;96358.85;;;;
2020/03/18 05:09:13;;;;;;;16.65;13.75;;;;;;;3.65;82.38672;96358.85;;;;
2020/03/18 05:10:19;;;;;;;16.65;13.75;;;;;;;3.65;82.38672;96358.85;;;;
2020/03/18 05:11:21;;;;;;;16.65;13.75;;;;;;;3.65;82.38672;96358.85;;;;
2020/03/18 05:12:22;;;;;;;16.65;13.75;;;;;;;3.65;82.38672;96358.85;;;;
2020/03/18 05:13:22;;;;;;;16.65;13.75;;;;;;;3.65;82.38672;96358.85;;;;
2020/03/18 05:14:22;;;;;;;16.65;13.75;;;;;;;3.65;82.38672;96358.85;;;;
2020/03/18 05:15:25;;;;;;;18.65;13.8;;;;;;;3.49;82.49219;96363.28;;;;
2020/03/18 05:16:25;;;;;;;18.65;13.8;;;;;;;3.49;82.49219;96363.28;;;;
2020/03/18 05:17:26;;;;;;;18.65;13.8;;;;;;;3.49;82.49219;96363.28;;;;
2020/03/18 05:18:29;;;;;;;18.65;13.8;;;;;;;3.49;82.49219;96363.28;;;;
2020/03/18 05:19:31;;;;;;;18.65;13.8;;;;;;;3.49;82.49219;96363.28;;;;
2020/03/18 05:20:32;;;;;;;18.65;13.8;;;;;;;3.49;82.49219;96363.28;;;;
2020/03/18 05:21:35;;;;;;;18.65;13.8;;;;;;;3.49;82.49219;96363.28;;;;
2020/03/18 05:22:36;;;;;;;18.65;13.8;;;;;;;3.49;82.49219;96363.28;;;;
2020/03/18 05:23:38;;;;;;;18.65;13.8;;;;;;;3.49;82.49219;96363.28;;;;
2020/03/18 05:24:39;;;;;;;18.65;13.8;;;;;;;3.49;82.49219;96363.28;;;;
2020/03/18 05:25:39;;;;;;;16.7;14;;;;;;;3.45;82.84082;96362.84;;;;
2020/03/18 05:26:40;;;;;;;16.7;14;;;;;;;3.45;82.84082;96362.84;;;;
2020/03/18 05:27:40;;;;;;;16.7;14;;;;;;;3.45;82.84082;96362.84;;;;
2020/03/18 05:28:41;;;;;;;16.7;14;;;;;;;3.45;82.84082;96362.84;;;;
2020/03/18 05:29:41;;;;;;;16.7;14;;;;;;;3.45;82.84082;96362.84;;;;
2020/03/18 05:30:41;;;;;;;16.7;14;;;;;;;3.45;82.84082;96362.84;;;;
2020/03/18 05:31:43;;;;;;;16.7;14;;;;;;;3.45;82.84082;96362.84;;;;
2020/03/18 05:32:44;;;;;;;16.7;14;;;;;;;3.45;82.84082;96362.84;;;;
2020/03/18 05:33:46;;;;;;;16.7;14;;;;;;;3.45;82.84082;96362.84;;;;
2020/03/18 05:34:47;;;;;;;16.7;14;;;;;;;3.45;82.84082;96362.84;;;;
2020/03/18 05:35:47;;;;;;;16.7;14;;;;;;;3.45;82.84082;96362.84;;;;
2020/03/18 05:36:49;;;;;;;16.95;13.85;;;;;;;3.37;82.85742;96369.42;;;;
2020/03/18 05:37:51;;;;;;;16.95;13.85;;;;;;;3.37;82.85742;96369.42;;;;
2020/03/18 05:38:53;;;;;;;16.95;13.85;;;;;;;3.37;82.85742;96369.42;;;;
2020/03/18 05:39:54;;;;;;;16.95;13.85;;;;;;;3.37;82.85742;96369.42;;;;
2020/03/18 05:40:54;;;;;;;16.95;13.85;;;;;;;3.37;82.85742;96369.42;;;;
2020/03/18 05:41:55;;;;;;;16.95;13.85;;;;;;;3.37;82.85742;96369.42;;;;
2020/03/18 05:42:55;;;;;;;16.95;13.85;;;;;;;3.37;82.85742;96369.42;;;;
2020/03/18 05:43:56;;;;;;;16.95;13.85;;;;;;;3.37;82.85742;96369.42;;;;
2020/03/18 05:44:56;;;;;;;16.95;13.85;;;;;;;3.37;82.85742;96369.42;;;;
2020/03/18 05:45:57;;;;;;;16.95;13.85;;;;;;;3.37;82.85742;96369.42;;;;
2020/03/18 05:46:59;;;;;;;17.1;14.1;;;;;;;3.45;82.94531;96372.19;;;;
2020/03/18 05:48:02;;;;;;;17.1;14.1;;;;;;;3.45;82.94531;96372.19;;;;
2020/03/18 05:49:04;;;;;;;17.1;14.1;;;;;;;3.45;82.94531;96372.19;;;;
2020/03/18 05:50:04;;;;;;;17.1;14.1;;;;;;;3.45;82.94531;96372.19;;;;
2020/03/18 05:51:05;;;;;;;17.1;14.1;;;;;;;3.45;82.94531;96372.19;;;;
2020/03/18 05:52:05;;;;;;;17.1;14.1;;;;;;;3.45;82.94531;96372.19;;;;
2020/03/18 05:53:06;;;;;;;17.1;14.1;;;;;;;3.45;82.94531;96372.19;;;;
2020/03/18 05:54:06;;;;;;;17.1;14.1;;;;;;;3.45;82.94531;96372.19;;;;
2020/03/18 05:55:07;;;;;;;17.1;14.1;;;;;;;3.45;82.94531;96372.19;;;;
2020/03/18 05:56:07;;;;;;;17.1;14.1;;;;;;;3.45;82.94531;96372.19;;;;
2020/03/18 05:57:08;;;;;;;20.4;14.35;;;;;;;3.49;82.90234;96383.69;;;;
2020/03/18 05:58:09;;;;;;;20.4;14.35;;;;;;;3.49;82.90234;96383.69;;;;
2020/03/18 05:59:09;;;;;;;20.4;14.35;;;;;;;3.49;82.90234;96383.69;;;;
2020/03/18 06:00:12;;;;;;;20.4;14.35;;;;;;;3.49;82.90234;96383.69;;;;
2020/03/18 06:01:14;;;;;;;20.4;14.35;;;;;;;3.49;82.90234;96383.69;;;;
2020/03/18 06:02:16;;;;;;;20.4;14.35;;;;;;;3.49;82.90234;96383.69;;;;
2020/03/18 06:03:17;;;;;;;20.4;14.35;;;;;;;3.49;82.90234;96383.69;;;;
2020/03/18 06:04:18;;;;;;;20.4;14.35;;;;;;;3.49;82.90234;96383.69;;;;
2020/03/18 06:05:20;;;;;;;20.4;14.35;;;;;;;3.49;82.90234;96383.69;;;;
2020/03/18 06:06:20;;;;;;;20.4;14.35;;;;;;;3.49;82.90234;96383.69;;;;
2020/03/18 06:07:23;;;;;;;20.4;14.35;;;;;;;3.49;82.90234;96383.69;;;;
2020/03/18 06:08:30;;;;;;;18.55;13.75;;;;;;;3.66;83.00781;96387.14;;;;
2020/03/18 06:09:39;;;;;;;18.55;13.75;;;;;;;3.66;83.00781;96387.14;;;;
2020/03/18 06:10:42;;;;;;;18.55;13.75;;;;;;;3.66;83.00781;96387.14;;;;
2020/03/18 06:11:45;;;;;;;18.55;13.75;;;;;;;3.66;83.00781;96387.14;;;;
2020/03/18 06:12:49;;;;;;;18.55;13.75;;;;;;;3.66;83.00781;96387.14;;;;
2020/03/18 06:13:52;;;;;;;18.55;13.75;;;;;;;3.66;83.00781;96387.14;;;;
2020/03/18 06:14:53;;;;;;;18.55;13.75;;;;;;;3.66;83.00781;96387.14;;;;
2020/03/18 06:16:01;;;;;;;18.55;13.75;;;;;;;3.66;83.00781;96387.14;;;;